Terminal Aerodrome Forecast
Issued by NWS

Home | Current Version | Previous Version | Text Only | Print | Product List | Glossary On
Versions: 1 2 3 4 5 6 7 8 9 10 11 12 13 14 15 16
000
FTUS46 KMTR 231700
TAFSJC
TAF
KSJC 231730Z 2318/2418 31005KT P6SM FEW016 BKN035
     FM232000 31010KT P6SM SCT035
     FM232300 32015KT P6SM SCT040
     FM240400 30009KT P6SM SKC
     FM240800 31003KT P6SM SKC=

USA.gov is the U.S. government's official web portal to all federal, state and local government web resources and services.